Time;durP1;ratioP1;P1;durP2;ratioP2;P2;SDS_P1;SDS_P2;PMS_P1;PMS_P2;Temp;Humidity;BMP_temperature;BMP_pressure;BME280_temperature;BME280_humidity;BME280_pressure;Samples;Min_cycle;Max_cycle;Signal;HPM_P1;HPM_P2
2023/03/07 00:00:42;;;;;;;7.10;1.23;;;3.10;99.90;;;;;;5004012;28;20040;-73
2023/03/07 00:03:16;;;;;;;7.95;1.55;;;3.10;99.90;;;;;;5013935;28;20079;-73
2023/03/07 00:05:42;;;;;;;7.10;0.93;;;3.10;99.90;;;;;;5022341;28;20049;-73
2023/03/07 00:08:11;;;;;;;10.38;1.27;;;3.10;99.90;;;;;;5006560;28;20494;-72
2023/03/07 00:10:36;;;;;;;12.73;1.42;;;3.10;99.90;;;;;;5019464;28;20053;-73
2023/03/07 00:13:03;;;;;;;6.77;1.00;;;3.10;99.90;;;;;;5005799;28;20052;-73
2023/03/07 00:15:37;;;;;;;12.45;1.65;;;3.10;99.90;;;;;;5013565;28;20056;-73
2023/03/07 00:18:03;;;;;;;11.80;1.00;;;3.10;99.90;;;;;;5027441;28;20048;-73
2023/03/07 00:20:29;;;;;;;10.13;1.40;;;3.10;99.90;;;;;;5001873;28;20075;-73
2023/03/07 00:22:54;;;;;;;12.17;1.07;;;3.10;99.90;;;;;;5004617;28;20050;-73
2023/03/07 00:25:20;;;;;;;14.60;1.27;;;3.00;99.90;;;;;;5005925;28;20525;-73
2023/03/07 00:27:47;;;;;;;13.43;1.07;;;3.00;99.90;;;;;;5002069;28;20041;-73
2023/03/07 00:30:13;;;;;;;13.23;1.05;;;3.00;99.90;;;;;;5015331;28;20361;-73
2023/03/07 00:32:39;;;;;;;12.87;1.63;;;3.00;99.90;;;;;;5003868;28;20494;-73
2023/03/07 00:35:05;;;;;;;8.90;1.10;;;3.00;99.90;;;;;;5019064;28;20300;-73
2023/03/07 00:37:33;;;;;;;12.40;1.38;;;3.00;99.90;;;;;;5045488;28;20417;-73
2023/03/07 00:39:59;;;;;;;14.63;1.57;;;3.10;99.90;;;;;;5007884;28;20240;-72
2023/03/07 00:42:26;;;;;;;10.20;0.90;;;3.10;99.90;;;;;;5018570;28;20056;-71
2023/03/07 00:44:52;;;;;;;13.80;1.50;;;3.10;99.90;;;;;;5010367;28;20076;-70
2023/03/07 00:47:17;;;;;;;11.03;1.00;;;3.00;99.90;;;;;;5043106;28;20072;-70
2023/03/07 00:49:43;;;;;;;13.40;1.10;;;3.10;99.90;;;;;;5041556;28;20041;-70
2023/03/07 00:52:10;;;;;;;7.10;1.07;;;3.00;99.90;;;;;;5010559;28;20052;-70
2023/03/07 00:54:36;;;;;;;16.88;1.25;;;3.00;99.90;;;;;;5039193;28;20057;-70
2023/03/07 00:57:01;;;;;;;11.97;1.13;;;3.00;99.90;;;;;;5002611;28;20080;-71
2023/03/07 00:59:27;;;;;;;15.60;1.47;;;3.00;99.90;;;;;;5006528;28;20040;-71
2023/03/07 01:01:53;;;;;;;10.63;1.40;;;3.00;99.90;;;;;;5036982;28;20040;-70
2023/03/07 01:04:18;;;;;;;11.80;1.30;;;2.90;99.90;;;;;;5007629;28;20474;-70
2023/03/07 01:06:44;;;;;;;15.63;1.83;;;3.00;99.90;;;;;;5027633;28;20053;-70
2023/03/07 01:09:10;;;;;;;12.77;1.00;;;3.00;99.90;;;;;;5014019;28;20536;-70
2023/03/07 01:11:39;;;;;;;10.73;1.52;;;3.00;99.90;;;;;;5026048;28;20052;-70
2023/03/07 01:14:06;;;;;;;9.50;0.90;;;3.00;99.90;;;;;;5047975;28;20053;-70
2023/03/07 01:16:34;;;;;;;14.45;1.05;;;3.00;99.90;;;;;;5034895;28;20040;-70
2023/03/07 01:19:03;;;;;;;12.68;1.10;;;3.00;99.90;;;;;;5036633;28;20489;-70
2023/03/07 01:21:40;;;;;;;12.48;1.27;;;3.00;99.90;;;;;;5028691;28;20033;-71
2023/03/07 01:24:09;;;;;;;7.72;1.08;;;3.00;99.90;;;;;;5024201;28;20037;-70
2023/03/07 01:26:37;;;;;;;8.45;1.40;;;3.00;99.90;;;;;;5027995;28;20080;-70
2023/03/07 01:29:05;;;;;;;14.18;1.23;;;2.90;99.90;;;;;;5014310;28;20045;-71
2023/03/07 01:31:31;;;;;;;9.95;0.77;;;2.90;99.90;;;;;;5017996;28;20049;-71
2023/03/07 01:33:58;;;;;;;16.98;0.90;;;2.90;99.90;;;;;;5003858;28;20041;-71
2023/03/07 01:36:31;;;;;;;9.95;0.80;;;2.90;99.90;;;;;;5016209;28;20037;-71
2023/03/07 01:39:22;;;;;;;8.68;1.83;;;2.90;99.90;;;;;;5019013;28;20140;-71
2023/03/07 01:41:48;;;;;;;10.05;0.65;;;2.90;99.90;;;;;;5023402;28;20100;-70
2023/03/07 01:44:20;;;;;;;12.17;0.97;;;2.90;99.90;;;;;;5024323;28;20156;-72
2023/03/07 01:46:54;;;;;;;9.77;1.77;;;2.80;99.90;;;;;;5039342;28;20037;-72
2023/03/07 01:49:37;;;;;;;12.52;1.13;;;2.80;99.90;;;;;;5023562;28;20045;-71
2023/03/07 01:52:11;;;;;;;13.88;1.23;;;2.70;99.90;;;;;;5032607;28;20485;-70
2023/03/07 01:54:41;;;;;;;13.65;1.25;;;2.70;99.90;;;;;;5006435;28;20060;-70
2023/03/07 01:57:07;;;;;;;9.50;0.90;;;2.70;99.90;;;;;;5017579;28;20046;-70
2023/03/07 01:59:37;;;;;;;13.82;0.98;;;2.60;99.90;;;;;;5015639;28;20045;-71
2023/03/07 02:02:08;;;;;;;10.43;1.33;;;2.70;99.90;;;;;;5045809;28;20101;-71
2023/03/07 02:04:41;;;;;;;8.10;0.80;;;2.60;99.90;;;;;;5043759;28;20045;-72
2023/03/07 02:07:09;;;;;;;9.35;0.80;;;2.60;99.90;;;;;;5016770;28;20478;-71
2023/03/07 02:09:36;;;;;;;7.63;0.60;;;2.50;99.90;;;;;;5003943;28;20121;-71
2023/03/07 02:12:03;;;;;;;7.68;0.80;;;2.50;99.90;;;;;;4999918;28;20046;-71
2023/03/07 02:14:28;;;;;;;10.18;1.20;;;2.40;99.90;;;;;;5005887;28;20041;-71
2023/03/07 02:16:55;;;;;;;10.30;0.60;;;2.40;99.90;;;;;;5011849;28;20097;-71
2023/03/07 02:19:46;;;;;;;11.68;0.85;;;2.30;99.90;;;;;;5005772;28;20042;-71
2023/03/07 02:22:18;;;;;;;9.48;0.80;;;2.30;99.90;;;;;;5019979;28;20102;-71
2023/03/07 02:24:50;;;;;;;8.70;0.80;;;2.20;99.90;;;;;;5032103;28;20050;-71
2023/03/07 02:27:16;;;;;;;12.13;0.90;;;2.20;99.90;;;;;;5037260;28;20493;-71
2023/03/07 02:29:42;;;;;;;7.43;0.90;;;2.20;99.90;;;;;;5052376;28;20041;-70
2023/03/07 02:32:08;;;;;;;4.57;0.90;;;2.20;99.90;;;;;;4992408;28;20044;-71
2023/03/07 02:34:37;;;;;;;9.73;0.80;;;2.30;99.90;;;;;;5020182;28;20045;-71
2023/03/07 02:37:23;;;;;;;8.40;0.80;;;2.30;99.90;;;;;;5012151;28;20037;-71
2023/03/07 02:39:50;;;;;;;10.30;1.00;;;2.20;99.90;;;;;;5019507;28;20049;-71
2023/03/07 02:42:21;;;;;;;7.85;1.08;;;2.20;99.90;;;;;;5017682;28;20068;-71
2023/03/07 02:44:56;;;;;;;7.72;1.00;;;2.10;99.90;;;;;;5051915;28;20452;-71
2023/03/07 02:47:21;;;;;;;10.60;0.90;;;2.10;99.90;;;;;;5057188;28;20049;-70
2023/03/07 02:49:47;;;;;;;8.93;1.37;;;2.10;99.90;;;;;;4990948;28;20045;-71
2023/03/07 02:52:13;;;;;;;14.20;1.80;;;2.00;99.90;;;;;;5034792;28;20037;-71
2023/03/07 02:54:39;;;;;;;8.03;0.70;;;2.00;99.90;;;;;;5054104;28;20063;-71
2023/03/07 02:57:04;;;;;;;5.57;0.50;;;2.00;99.90;;;;;;5010058;28;20049;-71
2023/03/07 02:59:30;;;;;;;7.13;1.07;;;2.00;99.90;;;;;;5037790;28;20041;-71
2023/03/07 03:01:56;;;;;;;8.33;0.67;;;2.00;99.90;;;;;;5004636;28;20061;-71
2023/03/07 03:04:22;;;;;;;4.20;0.70;;;1.90;99.90;;;;;;5048222;28;20045;-71
2023/03/07 03:06:48;;;;;;;9.73;1.53;;;1.80;99.90;;;;;;5014111;28;20076;-70
2023/03/07 03:09:15;;;;;;;6.10;0.63;;;1.80;99.90;;;;;;5040424;28;20071;-71
2023/03/07 03:11:41;;;;;;;8.20;0.77;;;1.80;99.90;;;;;;5016618;28;20072;-71
2023/03/07 03:14:09;;;;;;;8.73;0.70;;;1.80;99.90;;;;;;5028557;28;20101;-70
2023/03/07 03:16:35;;;;;;;6.27;0.73;;;1.80;99.90;;;;;;5038813;28;20067;-70
2023/03/07 03:19:01;;;;;;;6.07;0.60;;;1.70;99.90;;;;;;5017219;28;20046;-70
2023/03/07 03:21:27;;;;;;;12.13;0.73;;;1.70;99.90;;;;;;5016471;28;20038;-71
2023/03/07 03:23:52;;;;;;;11.37;0.70;;;1.70;99.90;;;;;;5034057;28;20132;-71
2023/03/07 03:26:18;;;;;;;8.87;0.90;;;1.70;99.90;;;;;;4986628;28;20042;-71
2023/03/07 03:28:44;;;;;;;5.70;0.70;;;1.60;99.90;;;;;;5030780;28;20033;-71
2023/03/07 03:31:13;;;;;;;7.53;0.90;;;1.60;99.90;;;;;;5023450;28;20176;-71
2023/03/07 03:33:42;;;;;;;6.45;0.80;;;1.70;99.90;;;;;;5023929;28;20045;-71
2023/03/07 03:36:12;;;;;;;9.18;0.60;;;1.70;99.90;;;;;;5040997;28;20074;-71
2023/03/07 03:38:38;;;;;;;5.40;0.45;;;1.80;99.90;;;;;;5024105;28;20053;-71
2023/03/07 03:41:10;;;;;;;6.22;0.77;;;1.80;99.90;;;;;;5042383;28;20114;-71
2023/03/07 03:43:35;;;;;;;10.55;0.70;;;1.90;99.90;;;;;;5047117;28;20609;-71
2023/03/07 03:46:02;;;;;;;8.70;1.70;;;1.90;99.90;;;;;;5012701;28;20041;-71
2023/03/07 03:48:28;;;;;;;11.80;1.02;;;2.00;99.90;;;;;;5052952;28;20048;-71
2023/03/07 03:51:21;;;;;;;4.95;0.90;;;2.00;99.90;;;;;;5015157;28;20049;-71
2023/03/07 03:53:47;;;;;;;8.15;1.00;;;2.00;99.90;;;;;;5009135;28;20495;-71
2023/03/07 03:56:16;;;;;;;9.95;1.45;;;2.00;99.90;;;;;;5040728;28;20037;-71
2023/03/07 03:58:45;;;;;;;10.23;1.52;;;1.90;99.90;;;;;;5024134;28;20037;-71
2023/03/07 04:01:11;;;;;;;5.93;0.70;;;1.90;99.90;;;;;;5005290;28;20116;-71
2023/03/07 04:03:45;;;;;;;3.88;0.43;;;1.90;99.90;;;;;;5054573;28;20044;-70
2023/03/07 04:06:19;;;;;;;8.77;0.60;;;1.80;99.90;;;;;;5035280;28;20048;-71
2023/03/07 04:08:45;;;;;;;5.57;0.52;;;1.80;99.90;;;;;;5057708;28;20064;-71
2023/03/07 04:11:12;;;;;;;5.30;0.50;;;1.90;99.90;;;;;;5041895;28;20076;-71
2023/03/07 04:13:38;;;;;;;6.53;0.60;;;1.90;99.90;;;;;;5015357;28;20057;-71
2023/03/07 04:16:04;;;;;;;5.33;1.30;;;1.90;99.90;;;;;;5027999;28;20124;-71
2023/03/07 04:18:30;;;;;;;7.93;1.02;;;1.90;99.90;;;;;;5007827;28;20040;-71
2023/03/07 04:20:56;;;;;;;10.93;0.90;;;1.80;99.90;;;;;;5011029;28;20068;-71
2023/03/07 04:23:23;;;;;;;7.57;0.90;;;1.90;99.90;;;;;;5026680;28;20052;-71
2023/03/07 04:25:56;;;;;;;11.07;0.60;;;2.00;99.90;;;;;;5046761;28;20038;-71
2023/03/07 04:28:24;;;;;;;10.60;1.10;;;2.00;99.90;;;;;;5039808;28;20120;-71
2023/03/07 04:30:52;;;;;;;8.27;0.90;;;2.00;99.90;;;;;;5026634;28;20045;-71
2023/03/07 04:33:19;;;;;;;12.20;1.13;;;2.10;99.90;;;;;;4981208;28;20561;-71
2023/03/07 04:35:45;;;;;;;13.05;2.05;;;2.10;99.90;;;;;;5014517;28;20103;-71
2023/03/07 04:38:12;;;;;;;7.85;0.98;;;2.10;99.90;;;;;;5018910;28;20052;-71
2023/03/07 04:40:38;;;;;;;5.72;0.98;;;2.10;99.90;;;;;;5016472;28;20493;-71
2023/03/07 04:43:04;;;;;;;12.13;1.07;;;2.10;99.90;;;;;;5020169;28;20038;-71
2023/03/07 04:45:39;;;;;;;6.68;0.80;;;2.20;99.90;;;;;;5011672;28;20052;-71
2023/03/07 04:48:05;;;;;;;8.02;0.68;;;2.20;99.90;;;;;;5038539;28;20154;-71
2023/03/07 04:50:30;;;;;;;13.57;1.50;;;2.20;99.90;;;;;;5025630;28;20128;-71
2023/03/07 04:52:56;;;;;;;9.87;0.93;;;2.20;99.90;;;;;;5012758;28;20107;-71
2023/03/07 04:55:22;;;;;;;8.33;1.30;;;2.20;99.90;;;;;;5006856;28;20041;-70
2023/03/07 04:57:50;;;;;;;8.03;1.07;;;2.30;99.90;;;;;;5038748;28;20041;-70
2023/03/07 05:00:16;;;;;;;7.15;0.73;;;2.30;99.90;;;;;;5037810;28;20049;-70
2023/03/07 05:02:42;;;;;;;12.90;1.60;;;2.30;99.90;;;;;;5014581;28;20116;-70
2023/03/07 05:05:09;;;;;;;8.87;1.00;;;2.20;99.90;;;;;;5006332;28;20505;-70
2023/03/07 05:07:36;;;;;;;5.88;0.93;;;2.20;99.90;;;;;;5033781;28;20120;-70
2023/03/07 05:10:02;;;;;;;8.43;0.70;;;2.30;99.90;;;;;;5049810;28;20112;-70
2023/03/07 05:12:27;;;;;;;6.73;0.87;;;2.20;99.90;;;;;;4993379;28;20083;-70
2023/03/07 05:14:53;;;;;;;7.73;1.07;;;2.20;99.90;;;;;;5022090;28;20045;-70
2023/03/07 05:17:20;;;;;;;9.17;1.80;;;2.10;99.90;;;;;;5017388;28;20073;-70
2023/03/07 05:19:46;;;;;;;9.98;1.02;;;2.20;99.90;;;;;;5021752;28;20048;-70
2023/03/07 05:22:12;;;;;;;11.17;0.90;;;2.20;99.90;;;;;;4989988;28;20124;-70
2023/03/07 05:24:40;;;;;;;11.73;1.05;;;2.10;99.90;;;;;;5055088;28;20564;-70
2023/03/07 05:27:06;;;;;;;6.13;0.60;;;2.20;99.90;;;;;;5022107;28;20036;-71
2023/03/07 05:29:32;;;;;;;8.50;1.43;;;2.20;99.90;;;;;;5024124;28;20045;-71
2023/03/07 05:31:58;;;;;;;5.20;0.90;;;2.20;99.90;;;;;;5035019;28;20045;-71
2023/03/07 05:34:23;;;;;;;9.43;0.83;;;2.30;99.90;;;;;;5025752;28;20055;-72
2023/03/07 05:36:49;;;;;;;4.93;0.63;;;2.30;99.90;;;;;;5024657;28;20523;-71
2023/03/07 05:39:15;;;;;;;6.40;1.17;;;2.30;99.90;;;;;;5035832;28;20045;-71
2023/03/07 05:41:41;;;;;;;12.87;0.87;;;2.30;99.90;;;;;;4995741;28;20103;-71
2023/03/07 05:44:08;;;;;;;5.23;0.80;;;2.40;99.90;;;;;;5007166;28;20241;-71
2023/03/07 05:46:34;;;;;;;8.20;0.80;;;2.40;99.90;;;;;;5041002;28;20108;-71
2023/03/07 05:49:01;;;;;;;6.00;0.88;;;2.40;99.90;;;;;;5008351;28;20053;-72
2023/03/07 05:51:33;;;;;;;8.93;0.70;;;2.40;99.90;;;;;;5012360;28;20075;-72
2023/03/07 05:53:58;;;;;;;13.27;2.03;;;2.40;99.90;;;;;;5007578;28;20581;-72
2023/03/07 05:56:27;;;;;;;10.57;0.90;;;2.40;99.90;;;;;;5043476;28;20119;-72
2023/03/07 05:58:53;;;;;;;6.37;1.00;;;2.30;99.90;;;;;;5033200;28;20072;-72
2023/03/07 06:01:18;;;;;;;6.17;0.87;;;2.30;99.90;;;;;;5047927;28;20029;-71
2023/03/07 06:03:46;;;;;;;10.53;0.87;;;2.30;99.90;;;;;;4988490;28;20099;-71
2023/03/07 06:06:12;;;;;;;6.40;0.73;;;2.30;99.90;;;;;;5037407;28;20045;-71
2023/03/07 06:08:38;;;;;;;7.27;0.60;;;2.30;99.90;;;;;;5043332;28;20095;-71
2023/03/07 06:11:04;;;;;;;9.77;1.27;;;2.30;99.90;;;;;;5024668;28;20041;-71
2023/03/07 06:13:31;;;;;;;5.63;0.80;;;2.30;99.90;;;;;;5025946;28;20049;-71
2023/03/07 06:15:57;;;;;;;6.85;0.60;;;2.30;99.90;;;;;;5014494;28;20108;-71
2023/03/07 06:18:24;;;;;;;3.43;0.40;;;2.30;99.90;;;;;;5005957;28;20266;-71
2023/03/07 06:20:55;;;;;;;7.20;0.50;;;2.20;99.90;;;;;;5037065;28;20390;-71
2023/03/07 06:23:21;;;;;;;2.80;0.30;;;2.10;99.90;;;;;;5028047;28;20041;-71
2023/03/07 06:25:47;;;;;;;4.45;0.60;;;2.00;99.90;;;;;;5002130;28;20037;-71
2023/03/07 06:28:18;;;;;;;3.58;0.30;;;1.90;99.90;;;;;;5035100;28;20178;-71
2023/03/07 06:30:44;;;;;;;7.20;0.30;;;1.80;99.90;;;;;;5032431;28;20791;-71
2023/03/07 06:33:09;;;;;;;5.70;0.50;;;1.70;99.90;;;;;;5010288;28;20105;-71
2023/03/07 06:35:39;;;;;;;6.33;1.73;;;1.70;99.90;;;;;;5019314;28;20088;-71
2023/03/07 06:38:05;;;;;;;6.35;0.80;;;1.70;99.90;;;;;;5020692;28;20041;-71
2023/03/07 06:40:31;;;;;;;4.88;0.40;;;1.70;99.90;;;;;;5016722;28;20123;-71
2023/03/07 06:42:57;;;;;;;2.83;0.30;;;1.60;99.90;;;;;;5027495;28;20033;-71
2023/03/07 06:45:23;;;;;;;5.43;0.80;;;1.60;99.90;;;;;;5003922;28;20404;-71
2023/03/07 06:47:48;;;;;;;4.40;0.60;;;1.60;99.90;;;;;;5017015;28;20039;-71
2023/03/07 06:50:14;;;;;;;5.33;0.40;;;1.60;99.90;;;;;;5032840;28;20460;-71
2023/03/07 06:52:40;;;;;;;8.03;0.80;;;1.60;99.90;;;;;;5016097;28;20077;-71
2023/03/07 06:55:07;;;;;;;4.63;0.40;;;1.60;99.90;;;;;;4991185;28;20045;-71
2023/03/07 06:57:33;;;;;;;5.38;1.67;;;1.60;99.90;;;;;;5003507;28;20037;-71
2023/03/07 06:59:59;;;;;;;5.05;0.50;;;1.60;99.90;;;;;;5012580;28;20041;-71
2023/03/07 07:02:25;;;;;;;8.32;0.70;;;1.60;99.90;;;;;;5029594;28;20401;-71
2023/03/07 07:04:51;;;;;;;9.90;0.60;;;1.60;99.90;;;;;;4987021;28;20047;-71
2023/03/07 07:07:18;;;;;;;9.50;1.57;;;1.70;99.90;;;;;;4987948;28;20096;-71
2023/03/07 07:09:44;;;;;;;3.95;0.47;;;1.80;99.90;;;;;;5026466;28;20053;-72
2023/03/07 07:12:09;;;;;;;7.67;0.43;;;1.80;99.90;;;;;;5018790;28;20612;-72
2023/03/07 07:14:35;;;;;;;6.73;0.87;;;1.80;99.90;;;;;;5001488;28;20083;-72
2023/03/07 07:17:01;;;;;;;5.73;0.70;;;1.80;99.90;;;;;;5019645;28;20041;-72
2023/03/07 07:19:30;;;;;;;5.03;0.40;;;1.80;99.90;;;;;;5012617;28;20572;-72
2023/03/07 07:21:56;;;;;;;4.47;0.47;;;1.80;99.90;;;;;;5004446;28;20064;-72
2023/03/07 07:24:22;;;;;;;4.03;0.65;;;1.80;99.90;;;;;;5000740;28;20045;-72
2023/03/07 07:26:48;;;;;;;6.13;0.40;;;1.80;99.90;;;;;;5010205;28;20041;-72
2023/03/07 07:29:14;;;;;;;5.20;0.60;;;1.90;99.90;;;;;;5028039;28;20045;-71
2023/03/07 07:31:40;;;;;;;6.28;0.40;;;1.90;99.90;;;;;;5004884;28;20035;-71
2023/03/07 07:34:06;;;;;;;4.27;0.50;;;1.90;99.90;;;;;;5005249;28;20123;-71
2023/03/07 07:36:33;;;;;;;7.47;0.70;;;1.90;99.90;;;;;;5008733;28;20295;-71
2023/03/07 07:39:03;;;;;;;8.75;0.70;;;1.90;99.90;;;;;;5030701;28;20161;-72
2023/03/07 07:41:31;;;;;;;3.88;0.57;;;2.00;99.90;;;;;;5023426;28;20800;-72
2023/03/07 07:44:03;;;;;;;6.45;0.30;;;2.00;99.90;;;;;;5041475;28;20101;-72
2023/03/07 07:46:30;;;;;;;5.33;0.50;;;2.00;99.90;;;;;;5050986;28;20060;-72
2023/03/07 07:48:56;;;;;;;6.28;0.55;;;2.10;99.90;;;;;;5024656;28;20045;-71
2023/03/07 07:51:21;;;;;;;5.43;0.40;;;2.10;99.90;;;;;;5024306;28;20048;-72
2023/03/07 07:53:50;;;;;;;9.35;3.80;;;2.10;99.90;;;;;;5046205;28;20468;-72
2023/03/07 07:56:17;;;;;;;7.33;1.40;;;2.20;99.90;;;;;;5027133;28;20041;-73
2023/03/07 07:58:43;;;;;;;9.73;0.82;;;2.20;99.90;;;;;;4991291;28;20045;-72
2023/03/07 08:01:17;;;;;;;5.67;1.00;;;2.30;99.90;;;;;;5023879;28;20075;-72
2023/03/07 08:03:44;;;;;;;8.07;1.10;;;2.40;99.90;;;;;;5026366;28;20050;-72
2023/03/07 08:06:11;;;;;;;6.50;1.05;;;2.40;99.90;;;;;;5052322;28;20500;-72
2023/03/07 08:08:37;;;;;;;5.32;0.90;;;2.50;99.90;;;;;;5018411;28;20053;-72
2023/03/07 08:11:03;;;;;;;3.78;0.93;;;2.50;99.90;;;;;;5039465;28;20409;-72
2023/03/07 08:13:30;;;;;;;5.55;0.75;;;2.60;99.90;;;;;;5036909;28;20129;-71
2023/03/07 08:15:56;;;;;;;8.55;1.15;;;2.60;99.90;;;;;;5047513;28;20057;-72
2023/03/07 08:18:22;;;;;;;4.20;0.50;;;2.70;99.90;;;;;;5049258;28;20045;-72
2023/03/07 08:20:50;;;;;;;7.65;0.60;;;2.80;99.90;;;;;;5028532;28;20040;-73
2023/03/07 08:23:16;;;;;;;4.43;0.50;;;2.80;99.90;;;;;;5048802;28;20045;-73
2023/03/07 08:25:43;;;;;;;8.27;0.60;;;2.90;99.90;;;;;;5017589;28;20033;-73
2023/03/07 08:28:08;;;;;;;4.90;0.40;;;2.90;99.90;;;;;;5061289;28;20045;-72
2023/03/07 08:30:35;;;;;;;2.90;0.67;;;3.00;99.90;;;;;;5054481;28;20565;-71
2023/03/07 08:33:00;;;;;;;3.33;0.30;;;3.00;99.90;;;;;;5048938;28;20049;-72
2023/03/07 08:35:27;;;;;;;4.40;0.30;;;3.00;99.90;;;;;;5026206;28;20115;-72
2023/03/07 08:37:55;;;;;;;4.30;0.75;;;2.80;99.90;;;;;;5000679;28;20132;-72
2023/03/07 08:40:23;;;;;;;5.00;0.77;;;2.60;99.90;;;;;;5014012;28;20037;-72
2023/03/07 08:42:49;;;;;;;3.92;0.73;;;2.50;99.90;;;;;;5032189;28;20041;-72
2023/03/07 08:45:17;;;;;;;3.73;0.47;;;2.40;99.90;;;;;;5033665;28;20056;-72
2023/03/07 08:47:42;;;;;;;9.30;0.82;;;2.30;99.90;;;;;;5029583;28;20041;-71
2023/03/07 08:50:09;;;;;;;6.03;0.70;;;2.20;99.90;;;;;;5056868;28;20047;-72
2023/03/07 08:52:34;;;;;;;6.22;0.68;;;2.10;99.90;;;;;;5059481;28;20052;-71
2023/03/07 08:55:00;;;;;;;11.40;0.60;;;2.00;99.90;;;;;;5049709;28;20037;-72
2023/03/07 08:57:26;;;;;;;3.83;0.47;;;2.00;99.90;;;;;;5021994;28;20499;-72
2023/03/07 08:59:52;;;;;;;10.17;1.23;;;2.00;99.90;;;;;;5042082;28;20098;-72
2023/03/07 09:02:17;;;;;;;4.27;0.70;;;2.00;99.90;;;;;;5020023;28;20042;-72
2023/03/07 09:04:44;;;;;;;4.33;0.47;;;2.10;99.90;;;;;;5031635;28;20041;-73
2023/03/07 09:07:10;;;;;;;5.07;0.60;;;2.10;99.90;;;;;;4993214;28;20037;-72
2023/03/07 09:09:36;;;;;;;5.33;0.57;;;2.20;99.90;;;;;;5036977;28;20063;-72
2023/03/07 09:12:03;;;;;;;7.40;0.80;;;2.20;99.90;;;;;;5036910;28;20048;-72
2023/03/07 09:14:29;;;;;;;7.00;0.60;;;2.20;99.90;;;;;;5023694;28;20290;-72
2023/03/07 09:16:55;;;;;;;6.45;0.80;;;2.30;99.90;;;;;;5036344;28;20151;-72
2023/03/07 09:19:22;;;;;;;5.03;0.50;;;2.40;99.90;;;;;;5048185;28;20469;-71
2023/03/07 09:21:48;;;;;;;8.18;0.60;;;2.40;99.90;;;;;;5043487;28;20061;-72
2023/03/07 09:24:14;;;;;;;8.65;0.60;;;2.50;99.90;;;;;;5023051;28;20500;-72
2023/03/07 09:26:40;;;;;;;9.60;1.02;;;2.50;99.90;;;;;;5027529;28;20032;-71
2023/03/07 09:29:06;;;;;;;5.50;0.73;;;2.60;99.90;;;;;;5054751;28;20508;-72
2023/03/07 09:31:32;;;;;;;5.83;0.50;;;2.70;99.90;;;;;;5032102;28;20029;-71
2023/03/07 09:34:01;;;;;;;9.18;1.10;;;2.70;99.90;;;;;;5026738;28;20076;-71
2023/03/07 09:36:36;;;;;;;9.43;1.63;;;2.70;99.90;;;;;;5024186;28;20048;-72
2023/03/07 09:39:03;;;;;;;5.68;0.70;;;2.70;99.90;;;;;;5038411;28;20061;-72
2023/03/07 09:41:32;;;;;;;5.43;0.85;;;2.80;99.90;;;;;;5030444;28;20041;-72
2023/03/07 09:44:13;;;;;;;6.68;0.93;;;2.90;99.90;;;;;;5029910;28;20450;-72
2023/03/07 09:46:41;;;;;;;8.32;0.93;;;3.00;99.90;;;;;;5040815;28;20171;-72
2023/03/07 09:49:49;;;;;;;6.30;0.60;;;3.20;99.90;;;;;;5028471;28;20075;-72
2023/03/07 09:52:25;;;;;;;11.82;1.00;;;3.40;99.90;;;;;;5019103;28;20041;-72
2023/03/07 09:55:09;;;;;;;6.90;0.68;;;3.60;99.90;;;;;;5021164;28;20090;-71
2023/03/07 09:57:45;;;;;;;7.82;0.88;;;3.80;99.90;;;;;;5038176;28;20040;-72
2023/03/07 10:00:54;;;;;;;6.65;0.80;;;3.90;99.90;;;;;;5008208;28;20532;-72
2023/03/07 10:03:40;;;;;;;10.38;1.38;;;4.10;99.90;;;;;;5031716;28;20047;-72
2023/03/07 10:06:30;;;;;;;5.45;1.00;;;4.10;99.90;;;;;;5018535;28;20041;-72
2023/03/07 10:08:58;;;;;;;5.03;0.40;;;4.20;99.90;;;;;;5015340;28;20049;-71
2023/03/07 10:11:44;;;;;;;4.38;0.60;;;4.10;99.90;;;;;;4996637;28;20417;-71
2023/03/07 10:14:34;;;;;;;8.95;1.25;;;3.80;99.90;;;;;;5012723;28;20132;-71
2023/03/07 10:17:13;;;;;;;5.57;1.45;;;3.60;99.90;;;;;;5009434;28;20580;-71
2023/03/07 10:19:47;;;;;;;5.93;0.45;;;3.30;99.90;;;;;;5008537;28;20049;-71
2023/03/07 10:22:27;;;;;;;6.28;1.02;;;3.10;99.90;;;;;;5008992;28;20053;-71
2023/03/07 10:25:11;;;;;;;3.17;0.70;;;3.10;99.90;;;;;;5010374;28;20058;-71
2023/03/07 10:27:37;;;;;;;3.20;0.93;;;3.10;99.90;;;;;;5022474;28;20123;-71
2023/03/07 10:30:16;;;;;;;4.70;0.70;;;3.20;99.90;;;;;;5034736;28;20044;-71
2023/03/07 10:32:50;;;;;;;6.35;0.65;;;3.20;99.90;;;;;;5029451;28;20049;-71
2023/03/07 10:35:23;;;;;;;5.32;0.95;;;3.20;99.90;;;;;;5013914;28;20047;-71
2023/03/07 10:37:55;;;;;;;5.18;1.13;;;3.30;99.90;;;;;;5006100;28;20056;-71
2023/03/07 10:40:25;;;;;;;4.25;0.55;;;3.40;99.90;;;;;;5004011;28;20063;-71
2023/03/07 10:42:53;;;;;;;5.90;0.80;;;3.50;99.90;;;;;;5025453;28;20052;-71
2023/03/07 10:45:19;;;;;;;4.40;0.40;;;3.60;99.90;;;;;;5007093;28;20044;-71
2023/03/07 10:47:45;;;;;;;4.97;0.80;;;3.70;99.90;;;;;;5011591;28;20033;-71
2023/03/07 10:50:30;;;;;;;8.17;0.80;;;3.80;99.90;;;;;;5027816;28;20041;-71
2023/03/07 10:52:59;;;;;;;10.82;0.77;;;3.80;99.90;;;;;;5026029;28;20049;-71
2023/03/07 10:55:45;;;;;;;4.20;0.65;;;3.80;99.90;;;;;;5031616;28;20417;-71
2023/03/07 10:58:25;;;;;;;5.90;1.20;;;3.80;99.90;;;;;;5020550;28;20048;-71
2023/03/07 11:00:59;;;;;;;7.18;0.60;;;3.80;99.90;;;;;;5006064;28;20045;-71
2023/03/07 11:03:30;;;;;;;9.43;0.88;;;3.90;99.90;;;;;;5038857;28;20044;-71
2023/03/07 11:05:56;;;;;;;9.18;0.90;;;3.90;99.90;;;;;;5018911;28;20044;-71
2023/03/07 11:08:34;;;;;;;4.90;0.80;;;4.00;99.90;;;;;;5009463;28;20409;-71
2023/03/07 11:11:03;;;;;;;7.70;0.73;;;4.00;99.90;;;;;;5019377;28;20477;-71
2023/03/07 11:13:30;;;;;;;7.90;1.10;;;4.00;99.90;;;;;;5031016;28;20049;-71
2023/03/07 11:16:16;;;;;;;8.07;1.38;;;4.10;99.90;;;;;;5030898;28;20037;-71
2023/03/07 11:18:43;;;;;;;5.40;0.80;;;4.20;99.90;;;;;;5013005;28;20055;-71
2023/03/07 11:21:30;;;;;;;8.73;0.95;;;4.20;99.90;;;;;;5035714;28;20055;-71
2023/03/07 11:24:05;;;;;;;7.00;0.90;;;4.30;99.90;;;;;;5023629;28;20056;-71
2023/03/07 11:26:37;;;;;;;6.13;0.70;;;4.40;99.90;;;;;;5023245;28;20047;-71
2023/03/07 11:29:11;;;;;;;7.50;0.60;;;4.50;99.90;;;;;;5012579;28;20025;-71
2023/03/07 11:32:03;;;;;;;4.45;0.50;;;4.60;99.90;;;;;;5016571;28;20045;-71
2023/03/07 11:35:01;;;;;;;6.93;0.80;;;4.70;99.90;;;;;;5027354;28;20452;-71
2023/03/07 11:37:33;;;;;;;7.13;0.70;;;4.80;99.90;;;;;;5015656;28;20045;-71
2023/03/07 11:40:25;;;;;;;9.38;1.30;;;4.90;99.90;;;;;;5019127;28;20455;-71
2023/03/07 11:42:53;;;;;;;8.25;1.02;;;5.00;99.90;;;;;;5019947;28;20037;-71
2023/03/07 11:45:45;;;;;;;7.13;0.60;;;5.20;99.90;;;;;;5031973;28;20045;-72
2023/03/07 11:48:46;;;;;;;6.95;0.90;;;5.40;99.90;;;;;;5021723;28;20049;-72
2023/03/07 11:51:42;;;;;;;3.65;0.43;;;5.50;99.90;;;;;;5049167;28;20048;-72
2023/03/07 11:54:20;;;;;;;3.83;0.47;;;5.50;99.90;;;;;;5040557;28;20095;-72
2023/03/07 11:56:58;;;;;;;7.65;0.60;;;5.40;99.90;;;;;;5053200;28;20055;-72
2023/03/07 11:59:47;;;;;;;4.38;0.38;;;5.40;99.90;;;;;;5054791;28;20041;-72
2023/03/07 12:02:37;;;;;;;7.45;0.57;;;5.40;99.90;;;;;;5046926;28;20044;-72
2023/03/07 12:05:26;;;;;;;5.75;0.60;;;5.40;99.90;;;;;;5056314;28;20045;-72
2023/03/07 12:08:03;;;;;;;4.43;0.40;;;5.40;99.90;;;;;;5035237;28;20036;-72
2023/03/07 12:10:51;;;;;;;6.28;0.75;;;5.40;99.90;;;;;;5020232;28;20042;-72
2023/03/07 12:13:45;;;;;;;5.10;0.70;;;5.50;99.90;;;;;;5031795;28;20038;-72
2023/03/07 12:16:26;;;;;;;6.28;0.90;;;5.60;99.90;;;;;;5047792;28;20053;-72
2023/03/07 12:19:19;;;;;;;4.82;0.60;;;5.60;99.90;;;;;;5037778;28;20363;-73
2023/03/07 12:22:09;;;;;;;5.72;0.50;;;5.70;99.90;;;;;;5037186;28;20053;-73
2023/03/07 12:24:42;;;;;;;3.97;0.75;;;5.60;99.90;;;;;;5047787;28;20107;-73
2023/03/07 12:27:38;;;;;;;6.85;1.00;;;5.50;99.10;;;;;;5038022;28;20049;-73
2023/03/07 12:30:24;;;;;;;12.02;1.00;;;5.30;99.90;;;;;;5026286;28;20051;-73
2023/03/07 12:32:50;;;;;;;7.22;0.70;;;5.20;99.90;;;;;;5024297;28;20041;-73
2023/03/07 12:35:31;;;;;;;5.57;0.95;;;5.10;99.90;;;;;;5046835;28;20054;-72
2023/03/07 12:38:28;;;;;;;5.63;0.47;;;4.90;99.90;;;;;;5027495;28;20056;-72
2023/03/07 12:41:37;;;;;;;5.80;0.52;;;4.90;99.90;;;;;;5033054;28;20096;-72
2023/03/07 12:44:09;;;;;;;1.85;0.30;;;5.00;99.90;;;;;;5009040;28;20053;-72
2023/03/07 12:46:50;;;;;;;3.95;0.50;;;5.20;95.40;;;;;;5019830;28;20034;-72
2023/03/07 12:49:42;;;;;;;5.00;0.50;;;5.30;98.40;;;;;;5040952;28;20587;-72
2023/03/07 12:52:29;;;;;;;5.18;0.50;;;5.50;94.00;;;;;;5009440;28;20036;-72
2023/03/07 12:55:03;;;;;;;6.38;0.55;;;5.70;90.80;;;;;;5049739;28;20103;-72
2023/03/07 12:57:36;;;;;;;7.03;0.60;;;6.00;93.50;;;;;;5011657;28;20029;-72
2023/03/07 13:00:10;;;;;;;3.38;0.30;;;6.20;90.80;;;;;;5021723;28;20037;-72
2023/03/07 13:03:00;;;;;;;6.82;0.60;;;6.20;91.20;;;;;;5029841;28;20073;-72
2023/03/07 13:05:27;;;;;;;5.80;0.47;;;6.00;93.00;;;;;;5044277;28;20047;-72
2023/03/07 13:07:54;;;;;;;5.63;0.40;;;5.80;92.90;;;;;;5040063;28;20064;-72
2023/03/07 13:10:24;;;;;;;10.15;0.85;;;5.60;90.90;;;;;;5028407;28;20050;-72
2023/03/07 13:12:50;;;;;;;2.95;0.43;;;5.30;89.90;;;;;;5030863;28;20128;-72